Time;durP1;ratioP1;P1;durP2;ratioP2;P2;SDS_P1;SDS_P2;PMS_P1;PMS_P2;Temp;Humidity;BMP_temperature;BMP_pressure;BME280_temperature;BME280_humidity;BME280_pressure;Samples;Min_cycle;Max_cycle;Signal;HPM_P1;HPM_P2
2023/03/15 00:00:25;;;;;;;6.80;3.83;;;1.90;67.40;;;;;;6285413;28;20530;-82
2023/03/15 00:03:28;;;;;;;6.43;4.43;;;1.80;67.50;;;;;;6292359;28;20484;-82
2023/03/15 00:06:33;;;;;;;7.30;3.90;;;1.90;67.20;;;;;;6287986;28;20257;-81
2023/03/15 00:09:39;;;;;;;6.27;3.93;;;1.80;67.50;;;;;;6278759;28;20253;-84
2023/03/15 00:12:42;;;;;;;9.67;4.10;;;1.80;67.60;;;;;;6265001;28;20233;-83
2023/03/15 00:15:47;;;;;;;8.17;3.93;;;1.80;67.50;;;;;;6296594;28;20237;-83
2023/03/15 00:18:50;;;;;;;5.20;3.90;;;1.80;67.60;;;;;;6304040;28;20271;-81
2023/03/15 00:21:55;;;;;;;7.60;4.37;;;1.80;67.60;;;;;;6284471;28;20244;-82
2023/03/15 00:24:58;;;;;;;5.73;3.97;;;1.70;67.60;;;;;;6286504;28;20782;-82
2023/03/15 00:28:01;;;;;;;5.60;3.97;;;1.70;67.80;;;;;;6296722;28;20607;-83
2023/03/15 00:31:08;;;;;;;4.83;3.70;;;1.70;67.90;;;;;;6279668;28;20236;-84
2023/03/15 00:34:12;;;;;;;11.47;4.53;;;1.70;67.60;;;;;;6265856;28;20899;-84
2023/03/15 00:37:18;;;;;;;7.00;4.17;;;1.70;67.60;;;;;;6282636;28;20592;-85
2023/03/15 00:40:21;;;;;;;6.87;4.10;;;1.70;67.70;;;;;;6301270;28;20256;-82
2023/03/15 00:43:25;;;;;;;8.13;4.03;;;1.70;67.70;;;;;;6295633;28;20243;-83
2023/03/15 00:46:28;;;;;;;11.90;4.07;;;1.60;67.60;;;;;;6287060;28;20240;-82
2023/03/15 00:49:32;;;;;;;5.30;3.77;;;1.70;67.50;;;;;;6287289;28;20320;-82
2023/03/15 00:52:37;;;;;;;7.40;3.87;;;1.70;67.50;;;;;;6287075;28;20288;-83
2023/03/15 00:55:41;;;;;;;9.87;4.60;;;1.70;67.50;;;;;;6294641;28;20775;-82
2023/03/15 00:58:45;;;;;;;9.03;4.20;;;1.60;67.40;;;;;;6297021;28;20244;-80
2023/03/15 01:01:48;;;;;;;6.17;3.83;;;1.60;67.80;;;;;;6279139;28;20497;-84
2023/03/15 01:04:51;;;;;;;7.80;3.90;;;1.60;67.90;;;;;;6288236;27;20293;-83
2023/03/15 01:07:55;;;;;;;7.80;3.90;;;1.50;67.90;;;;;;6287266;28;20316;-82
2023/03/15 01:11:02;;;;;;;4.17;3.57;;;1.50;68.00;;;;;;6288718;28;20326;-83
2023/03/15 01:14:07;;;;;;;7.80;4.43;;;1.50;68.00;;;;;;6289002;28;20237;-82
2023/03/15 01:17:10;;;;;;;3.73;3.40;;;1.50;68.20;;;;;;6285117;28;20230;-83
2023/03/15 01:20:15;;;;;;;7.07;4.17;;;1.50;68.00;;;;;;6281040;28;20237;-82
2023/03/15 01:23:19;;;;;;;6.23;4.13;;;1.50;68.00;;;;;;6279228;27;20222;-84
2023/03/15 01:26:23;;;;;;;6.63;3.70;;;1.50;68.00;;;;;;6286027;28;20708;-82
2023/03/15 01:29:26;;;;;;;9.97;3.70;;;1.50;68.00;;;;;;6294518;28;20225;-81
2023/03/15 01:32:29;;;;;;;5.17;3.90;;;1.50;68.00;;;;;;6276722;28;20244;-82
2023/03/15 01:35:32;;;;;;;7.10;4.10;;;1.50;67.90;;;;;;6284095;28;20622;-83
2023/03/15 01:38:37;;;;;;;6.40;4.43;;;1.50;68.00;;;;;;6285358;28;20315;-83
2023/03/15 01:41:40;;;;;;;7.67;3.80;;;1.40;68.20;;;;;;6287982;28;20356;-81
2023/03/15 01:44:54;;;;;;;7.00;3.90;;;1.40;68.20;;;;;;6292925;27;20717;-82
2023/03/15 01:47:57;;;;;;;7.53;4.10;;;1.40;68.20;;;;;;6278132;28;20241;-82
2023/03/15 01:51:06;;;;;;;8.00;4.20;;;1.40;68.30;;;;;;6285050;28;20717;-83
2023/03/15 01:54:15;;;;;;;6.73;4.00;;;1.50;68.20;;;;;;6285578;28;20241;-81
2023/03/15 01:57:22;;;;;;;6.27;4.20;;;1.40;68.30;;;;;;6293139;28;20792;-81
2023/03/15 02:00:26;;;;;;;6.03;4.17;;;1.40;68.40;;;;;;6289656;28;20544;-83
2023/03/15 02:03:33;;;;;;;3.90;3.60;;;1.40;68.40;;;;;;6287245;28;20237;-81
2023/03/15 02:06:37;;;;;;;7.70;4.33;;;1.40;68.30;;;;;;6285031;28;20623;-84
2023/03/15 02:09:49;;;;;;;7.47;4.23;;;1.40;68.60;;;;;;6287361;27;20237;-83
2023/03/15 02:12:56;;;;;;;4.47;4.10;;;1.30;68.60;;;;;;6277959;28;20426;-82
2023/03/15 02:15:59;;;;;;;4.90;4.33;;;1.30;68.90;;;;;;6300590;28;20237;-83
2023/03/15 02:19:04;;;;;;;6.23;3.87;;;1.20;68.90;;;;;;6278260;28;20642;-82
2023/03/15 02:22:19;;;;;;;10.17;4.47;;;1.30;68.80;;;;;;6283711;28;20229;-82
2023/03/15 02:25:31;;;;;;;8.73;4.00;;;1.30;68.90;;;;;;6289298;28;20664;-81
2023/03/15 02:28:36;;;;;;;6.67;4.00;;;1.40;68.70;;;;;;6290810;27;20767;-82
2023/03/15 02:31:40;;;;;;;6.60;4.00;;;1.40;68.70;;;;;;6290856;28;20238;-81
2023/03/15 02:34:43;;;;;;;9.27;4.50;;;1.30;68.80;;;;;;6289095;28;20505;-81
2023/03/15 02:37:46;;;;;;;8.80;3.57;;;1.20;69.00;;;;;;6289157;28;20225;-83
2023/03/15 02:40:52;;;;;;;4.57;4.17;;;1.20;69.20;;;;;;6289163;28;20762;-81
2023/03/15 02:44:02;;;;;;;4.30;3.90;;;1.20;69.50;;;;;;6302361;27;20233;-83
2023/03/15 02:47:10;;;;;;;6.73;4.00;;;1.20;69.40;;;;;;6287926;28;20245;-81
2023/03/15 02:50:13;;;;;;;7.27;4.17;;;1.10;69.40;;;;;;6289627;28;20257;-84
2023/03/15 02:53:16;;;;;;;7.87;4.07;;;1.10;69.60;;;;;;6295979;28;20224;-83
2023/03/15 02:56:19;;;;;;;14.13;4.60;;;1.00;69.60;;;;;;6287702;28;20436;-82
2023/03/15 02:59:23;;;;;;;10.53;5.13;;;1.10;69.70;;;;;;6274504;28;20240;-82
2023/03/15 03:02:27;;;;;;;10.23;4.43;;;1.00;70.00;;;;;;6272078;28;20655;-83
2023/03/15 03:05:30;;;;;;;4.67;3.90;;;1.00;70.00;;;;;;6270798;28;20737;-81
2023/03/15 03:08:33;;;;;;;4.97;4.33;;;1.00;70.10;;;;;;6296020;28;20241;-81
2023/03/15 03:11:36;;;;;;;5.57;3.80;;;1.00;70.10;;;;;;6297880;28;20255;-82
2023/03/15 03:14:42;;;;;;;7.77;4.30;;;1.00;70.20;;;;;;6288398;28;20237;-82
2023/03/15 03:17:45;;;;;;;4.10;3.80;;;1.00;70.20;;;;;;6286511;28;20248;-82
2023/03/15 03:20:48;;;;;;;4.30;3.97;;;0.90;70.40;;;;;;6287963;28;20237;-81
2023/03/15 03:23:53;;;;;;;7.50;3.80;;;1.00;70.20;;;;;;6287218;28;20400;-82
2023/03/15 03:26:57;;;;;;;7.07;3.93;;;1.00;70.10;;;;;;6284450;27;20269;-83
2023/03/15 03:30:01;;;;;;;6.40;4.17;;;1.00;70.00;;;;;;6304530;28;20236;-80
2023/03/15 03:33:05;;;;;;;5.77;4.07;;;1.00;70.00;;;;;;6281672;28;20233;-83
2023/03/15 03:36:08;;;;;;;7.90;4.30;;;1.10;70.10;;;;;;6287753;28;20255;-83
2023/03/15 03:39:11;;;;;;;4.20;3.90;;;1.10;70.30;;;;;;6293957;27;20237;-82
2023/03/15 03:42:15;;;;;;;5.27;4.60;;;1.10;70.60;;;;;;6295158;28;20240;-82
2023/03/15 03:45:19;;;;;;;10.33;4.43;;;1.10;70.70;;;;;;6287818;28;20383;-81
2023/03/15 03:48:23;;;;;;;4.33;3.93;;;1.20;70.50;;;;;;6286397;28;20325;-82
2023/03/15 03:51:26;;;;;;;7.70;4.63;;;1.20;70.50;;;;;;6290964;28;20247;-81
2023/03/15 03:54:30;;;;;;;8.87;4.87;;;1.20;70.60;;;;;;6287678;28;20233;-82
2023/03/15 03:57:34;;;;;;;5.50;4.23;;;1.30;70.40;;;;;;6262960;28;20259;-81
2023/03/15 04:00:38;;;;;;;6.23;3.80;;;1.30;70.20;;;;;;6286920;28;20240;-82
2023/03/15 04:03:41;;;;;;;4.40;3.77;;;1.20;70.30;;;;;;6284306;28;20236;-82
2023/03/15 04:06:45;;;;;;;4.43;3.80;;;1.20;70.10;;;;;;6286343;28;20259;-82
2023/03/15 04:09:49;;;;;;;8.10;4.00;;;1.10;70.30;;;;;;6294780;28;20233;-82
2023/03/15 04:12:53;;;;;;;4.93;4.10;;;1.00;70.40;;;;;;6284861;28;20400;-81
2023/03/15 04:16:00;;;;;;;7.90;4.60;;;1.00;70.70;;;;;;6295191;28;20762;-81
2023/03/15 04:19:04;;;;;;;7.93;4.50;;;1.00;70.70;;;;;;6283872;28;20237;-82
2023/03/15 04:22:09;;;;;;;6.00;4.27;;;1.00;70.80;;;;;;6302331;28;20237;-82
2023/03/15 04:25:12;;;;;;;9.47;4.53;;;1.00;70.80;;;;;;6292910;28;20233;-81
2023/03/15 04:28:16;;;;;;;9.33;4.60;;;0.90;70.90;;;;;;6283847;28;20241;-83
2023/03/15 04:31:25;;;;;;;4.97;4.20;;;0.80;71.10;;;;;;6286350;28;20244;-81
2023/03/15 04:34:29;;;;;;;6.60;4.30;;;1.00;70.90;;;;;;6288003;28;20692;-81
2023/03/15 04:37:32;;;;;;;10.40;5.73;;;0.90;70.90;;;;;;6283546;28;20262;-81
2023/03/15 04:40:35;;;;;;;7.40;4.73;;;0.80;71.00;;;;;;6278240;28;20244;-82
2023/03/15 04:43:39;;;;;;;8.10;4.53;;;0.80;71.20;;;;;;6299684;28;20233;-81
2023/03/15 04:46:44;;;;;;;8.57;4.93;;;0.80;71.20;;;;;;6276479;28;20340;-81
2023/03/15 04:49:47;;;;;;;8.17;4.60;;;0.70;71.30;;;;;;6286517;28;20230;-81
2023/03/15 04:52:50;;;;;;;8.00;4.27;;;0.60;71.50;;;;;;6285329;28;20595;-78
2023/03/15 04:55:54;;;;;;;5.73;4.23;;;0.60;71.50;;;;;;6287431;28;20240;-80
2023/03/15 04:58:57;;;;;;;7.33;5.20;;;0.60;71.50;;;;;;6283259;28;20784;-82
2023/03/15 05:02:01;;;;;;;6.23;4.37;;;0.70;71.50;;;;;;6286359;28;20232;-82
2023/03/15 05:05:06;;;;;;;6.17;4.77;;;0.60;71.50;;;;;;6280357;28;20229;-85
2023/03/15 05:08:09;;;;;;;7.37;4.37;;;0.60;71.60;;;;;;6288462;28;20244;-80
2023/03/15 05:11:13;;;;;;;10.33;4.90;;;0.60;71.50;;;;;;6291483;28;20240;-82
2023/03/15 05:14:16;;;;;;;5.10;4.67;;;0.60;71.80;;;;;;6290840;28;20240;-82
2023/03/15 05:17:21;;;;;;;9.77;4.93;;;0.60;71.70;;;;;;6285761;28;20271;-81
2023/03/15 05:20:25;;;;;;;5.87;4.37;;;0.60;71.80;;;;;;6282829;28;20612;-82
2023/03/15 05:23:28;;;;;;;10.87;4.60;;;0.50;72.00;;;;;;6302214;28;20320;-79
2023/03/15 05:26:31;;;;;;;4.93;4.60;;;0.50;72.10;;;;;;6272801;28;20279;-79
2023/03/15 05:29:34;;;;;;;4.77;4.37;;;0.50;72.10;;;;;;6282372;28;20233;-80
2023/03/15 05:32:43;;;;;;;12.33;5.17;;;0.50;72.20;;;;;;6281329;28;20245;-81
2023/03/15 05:35:46;;;;;;;6.80;4.77;;;0.60;71.80;;;;;;6246103;28;20630;-81
2023/03/15 05:38:52;;;;;;;12.17;5.03;;;0.60;71.70;;;;;;6260956;28;20234;-81
2023/03/15 05:41:55;;;;;;;6.13;4.73;;;0.60;71.60;;;;;;6267901;28;20241;-82
2023/03/15 05:45:02;;;;;;;10.80;4.80;;;0.70;71.70;;;;;;6289173;28;20229;-81
2023/03/15 05:48:07;;;;;;;9.97;4.60;;;0.80;71.50;;;;;;6292028;27;20255;-82
2023/03/15 05:51:11;;;;;;;8.60;4.63;;;0.80;71.40;;;;;;6271958;28;20242;-79
2023/03/15 05:54:15;;;;;;;10.03;4.97;;;0.80;71.50;;;;;;6272628;28;20229;-82
2023/03/15 05:57:18;;;;;;;6.23;4.77;;;1.00;71.10;;;;;;6278974;28;20237;-81
2023/03/15 06:00:22;;;;;;;8.10;4.83;;;1.00;71.00;;;;;;6275604;28;20500;-80
2023/03/15 06:03:26;;;;;;;7.17;5.20;;;1.00;70.90;;;;;;6282224;28;20704;-84
2023/03/15 06:06:30;;;;;;;12.33;4.97;;;1.00;70.50;;;;;;6268270;28;20274;-82
2023/03/15 06:09:35;;;;;;;8.10;4.63;;;1.10;70.30;;;;;;6260309;28;20487;-81
2023/03/15 06:12:40;;;;;;;10.87;4.97;;;1.10;70.30;;;;;;6264953;28;20229;-82
2023/03/15 06:15:43;;;;;;;14.17;5.10;;;1.00;70.20;;;;;;6267130;28;20336;-80
2023/03/15 06:18:48;;;;;;;9.20;4.87;;;1.10;70.20;;;;;;6273832;28;20229;-84
2023/03/15 06:21:51;;;;;;;10.73;4.90;;;1.20;69.90;;;;;;6289530;28;20229;-84
2023/03/15 06:24:55;;;;;;;7.07;5.50;;;1.40;69.40;;;;;;6296518;28;20310;-79
2023/03/15 06:27:58;;;;;;;5.53;4.27;;;1.50;69.10;;;;;;6291649;28;20237;-80
2023/03/15 06:31:07;;;;;;;9.60;4.40;;;1.60;68.70;;;;;;6276646;28;20245;-80
2023/03/15 06:34:11;;;;;;;9.03;4.53;;;1.60;68.30;;;;;;6277356;27;20242;-79
2023/03/15 06:37:15;;;;;;;5.80;4.30;;;1.70;68.20;;;;;;6281233;28;20245;-84
2023/03/15 06:40:27;;;;;;;5.50;4.60;;;1.70;68.40;;;;;;6290815;28;20241;-82
2023/03/15 06:43:31;;;;;;;8.87;4.23;;;1.60;69.30;;;;;;6284069;28;20230;-80
2023/03/15 06:46:34;;;;;;;9.87;5.17;;;1.60;70.10;;;;;;6293096;28;20244;-84
2023/03/15 06:49:39;;;;;;;8.50;5.00;;;1.50;71.00;;;;;;6279245;28;20368;-81
2023/03/15 06:52:42;;;;;;;4.53;4.17;;;1.40;71.90;;;;;;6279264;28;20236;-80
2023/03/15 06:55:46;;;;;;;5.23;4.77;;;1.40;72.10;;;;;;6287170;28;20230;-79
2023/03/15 06:58:50;;;;;;;6.20;4.13;;;1.40;72.30;;;;;;6279773;28;20251;-78
2023/03/15 07:01:53;;;;;;;9.93;4.10;;;1.40;72.20;;;;;;6288497;28;20233;-79
2023/03/15 07:04:58;;;;;;;7.40;4.40;;;1.50;72.10;;;;;;6323565;28;20273;-79
2023/03/15 07:08:01;;;;;;;5.80;4.30;;;1.60;71.90;;;;;;6317844;28;20237;-78
2023/03/15 07:11:05;;;;;;;9.57;4.97;;;1.70;71.60;;;;;;6312552;28;20296;-79
2023/03/15 07:14:09;;;;;;;4.97;4.30;;;1.80;71.40;;;;;;6316914;28;20233;-78
2023/03/15 07:17:13;;;;;;;5.43;4.73;;;1.90;71.10;;;;;;6303812;28;20282;-80
2023/03/15 07:20:17;;;;;;;5.30;4.57;;;2.10;70.70;;;;;;6321376;28;20240;-78
2023/03/15 07:23:20;;;;;;;7.00;4.50;;;2.30;69.90;;;;;;6301427;28;20210;-79
2023/03/15 07:26:23;;;;;;;7.43;4.20;;;2.40;69.30;;;;;;6289708;28;20226;-81
2023/03/15 07:29:26;;;;;;;5.73;4.37;;;2.50;68.70;;;;;;6271802;28;20264;-81
2023/03/15 07:32:31;;;;;;;9.80;4.67;;;2.60;68.60;;;;;;6283962;28;20241;-82
2023/03/15 07:35:36;;;;;;;9.37;4.67;;;2.50;68.00;;;;;;6282360;28;20241;-79
2023/03/15 07:38:40;;;;;;;10.00;4.90;;;2.60;68.00;;;;;;6273029;28;20237;-80
2023/03/15 07:41:45;;;;;;;4.63;4.07;;;2.70;67.90;;;;;;6262000;28;20242;-82
2023/03/15 07:44:48;;;;;;;7.47;4.13;;;2.60;67.50;;;;;;6275351;28;20268;-82
2023/03/15 07:47:51;;;;;;;7.10;5.13;;;2.50;67.40;;;;;;6283724;28;20253;-81
2023/03/15 07:50:58;;;;;;;10.03;4.50;;;2.50;67.40;;;;;;6288669;28;20237;-80
2023/03/15 07:54:03;;;;;;;5.63;4.90;;;2.50;67.00;;;;;;6298530;28;20253;-81
2023/03/15 07:57:07;;;;;;;7.43;4.20;;;2.50;67.10;;;;;;6315239;28;20389;-78
2023/03/15 08:00:14;;;;;;;11.93;5.30;;;2.60;67.30;;;;;;6319498;28;20226;-77
2023/03/15 08:03:17;;;;;;;6.17;4.83;;;2.80;66.70;;;;;;6311425;28;20308;-78
2023/03/15 08:06:23;;;;;;;7.37;5.07;;;2.80;66.60;;;;;;6305128;28;20242;-80
2023/03/15 08:09:26;;;;;;;9.07;5.90;;;2.70;67.00;;;;;;6318020;28;20263;-78
2023/03/15 08:12:30;;;;;;;8.73;4.80;;;2.80;66.80;;;;;;6323074;28;20248;-78
2023/03/15 08:15:33;;;;;;;10.63;5.33;;;2.90;66.70;;;;;;6306054;27;20249;-82
2023/03/15 08:18:36;;;;;;;6.90;5.33;;;3.00;66.80;;;;;;6270286;28;20225;-81
2023/03/15 08:21:44;;;;;;;8.77;5.67;;;3.10;66.30;;;;;;6278068;28;20242;-81
2023/03/15 08:24:47;;;;;;;11.97;6.50;;;3.10;66.80;;;;;;6284960;28;20237;-80
2023/03/15 08:27:51;;;;;;;6.60;5.20;;;3.10;66.30;;;;;;6284954;28;20248;-79
2023/03/15 08:30:54;;;;;;;6.13;4.50;;;3.10;66.60;;;;;;6285823;28;20229;-83
2023/03/15 08:33:57;;;;;;;6.50;5.33;;;3.20;66.00;;;;;;6289029;28;20724;-81
2023/03/15 08:37:02;;;;;;;10.80;5.73;;;3.10;66.00;;;;;;6281398;28;20229;-81
2023/03/15 08:40:08;;;;;;;5.30;5.00;;;3.20;65.60;;;;;;6260953;28;20238;-81
2023/03/15 08:43:11;;;;;;;6.27;5.17;;;3.20;66.10;;;;;;6262065;28;20234;-80
2023/03/15 08:46:14;;;;;;;6.43;4.87;;;3.10;65.80;;;;;;6264901;28;20234;-81
2023/03/15 08:49:17;;;;;;;7.63;5.33;;;3.10;66.20;;;;;;6262062;28;20242;-79
2023/03/15 08:52:22;;;;;;;7.27;5.30;;;3.10;66.50;;;;;;6283450;28;20240;-80
2023/03/15 08:55:25;;;;;;;5.30;4.90;;;3.30;66.20;;;;;;6266584;28;20236;-84
2023/03/15 08:58:29;;;;;;;9.90;5.30;;;3.40;65.90;;;;;;6264346;28;20238;-82
2023/03/15 09:01:32;;;;;;;5.97;5.33;;;3.50;65.20;;;;;;6265476;28;20317;-82
2023/03/15 09:04:35;;;;;;;8.73;4.93;;;3.50;65.00;;;;;;6261567;28;20898;-83
2023/03/15 09:07:41;;;;;;;5.60;4.90;;;3.60;65.10;;;;;;6278980;28;20311;-84
2023/03/15 09:10:44;;;;;;;11.83;5.37;;;3.70;64.30;;;;;;6286112;27;20240;-83
2023/03/15 09:13:48;;;;;;;7.37;5.43;;;3.70;64.30;;;;;;6255871;28;20261;-80
2023/03/15 09:16:52;;;;;;;7.93;5.27;;;3.70;64.70;;;;;;6271338;28;20252;-81
2023/03/15 09:19:57;;;;;;;5.60;5.20;;;4.00;65.00;;;;;;6294836;28;20618;-79
2023/03/15 09:23:02;;;;;;;10.63;5.63;;;4.10;63.00;;;;;;6266043;28;20714;-81
2023/03/15 09:26:05;;;;;;;6.27;5.10;;;4.00;63.00;;;;;;6271344;28;20225;-81
2023/03/15 09:29:09;;;;;;;8.40;5.27;;;3.90;63.20;;;;;;6269312;28;20234;-82
2023/03/15 09:32:12;;;;;;;6.60;5.30;;;3.90;63.70;;;;;;6270678;28;20234;-79
2023/03/15 09:35:17;;;;;;;7.67;5.40;;;4.00;63.30;;;;;;6290058;28;20292;-79
2023/03/15 09:38:25;;;;;;;6.63;5.60;;;4.00;63.80;;;;;;6293833;27;20249;-83
2023/03/15 09:41:40;;;;;;;5.27;4.73;;;3.90;62.40;;;;;;6284915;28;20245;-79
2023/03/15 09:44:48;;;;;;;5.20;4.70;;;3.90;62.70;;;;;;6266546;28;20226;-80
2023/03/15 09:48:00;;;;;;;5.60;5.00;;;3.80;62.30;;;;;;6264928;28;20319;-82
2023/03/15 09:51:07;;;;;;;8.50;5.10;;;3.90;62.40;;;;;;6274582;28;20731;-79
2023/03/15 09:54:19;;;;;;;5.37;4.97;;;3.90;62.20;;;;;;6289305;27;20245;-79
2023/03/15 09:57:29;;;;;;;6.10;5.50;;;4.00;62.00;;;;;;6288937;28;20328;-80
2023/03/15 10:00:38;;;;;;;5.70;4.13;;;4.00;61.80;;;;;;6274867;28;20716;-82
2023/03/15 10:03:47;;;;;;;7.30;4.43;;;4.20;61.10;;;;;;6278751;28;20284;-80
2023/03/15 10:06:57;;;;;;;7.37;5.10;;;4.40;61.40;;;;;;6273541;28;20250;-80
2023/03/15 10:10:03;;;;;;;4.87;4.47;;;4.40;60.90;;;;;;6265198;28;20383;-81
2023/03/15 10:13:20;;;;;;;5.93;5.27;;;4.40;60.10;;;;;;6269691;28;20237;-82
2023/03/15 10:16:35;;;;;;;7.10;4.73;;;4.50;60.50;;;;;;6289667;28;20401;-80
2023/03/15 10:19:44;;;;;;;10.03;5.27;;;4.30;60.40;;;;;;6279359;28;20240;-81
2023/03/15 10:22:53;;;;;;;9.27;4.97;;;4.40;60.60;;;;;;6273222;28;20236;-81
2023/03/15 10:25:58;;;;;;;7.00;4.73;;;4.40;61.20;;;;;;6275343;28;20755;-81
2023/03/15 10:29:03;;;;;;;9.30;5.20;;;4.70;61.50;;;;;;6292547;28;20253;-80
2023/03/15 10:32:16;;;;;;;5.33;4.50;;;4.70;61.10;;;;;;6300643;28;20256;-81
2023/03/15 10:35:20;;;;;;;8.13;5.00;;;4.90;60.20;;;;;;6266005;28;20759;-81
2023/03/15 10:38:25;;;;;;;4.87;4.37;;;5.00;60.00;;;;;;6261682;28;20234;-80
2023/03/15 10:41:37;;;;;;;4.67;4.27;;;5.30;59.80;;;;;;6274443;28;20241;-81
2023/03/15 10:44:40;;;;;;;6.20;4.07;;;5.50;58.00;;;;;;6292437;27;20249;-83
2023/03/15 10:47:44;;;;;;;5.87;5.37;;;5.90;58.20;;;;;;6298370;28;20225;-81
2023/03/15 10:51:04;;;;;;;5.43;4.97;;;6.00;58.30;;;;;;6267417;28;20246;-80
2023/03/15 10:54:13;;;;;;;5.33;4.37;;;5.90;58.00;;;;;;6286381;28;20237;-82
2023/03/15 10:57:21;;;;;;;4.63;4.33;;;5.60;58.00;;;;;;6268947;28;20265;-80
2023/03/15 11:00:29;;;;;;;5.57;4.50;;;5.30;59.00;;;;;;6285778;28;20253;-81
2023/03/15 11:03:34;;;;;;;7.43;4.60;;;5.30;59.00;;;;;;6272179;28;20242;-81
2023/03/15 11:06:41;;;;;;;4.80;4.17;;;5.20;59.10;;;;;;6274937;28;20236;-81
2023/03/15 11:09:51;;;;;;;5.77;4.27;;;5.10;59.30;;;;;;6278198;28;20233;-82
2023/03/15 11:13:12;;;;;;;6.63;4.33;;;5.10;58.70;;;;;;6272940;28;20226;-81
2023/03/15 11:16:20;;;;;;;5.97;4.70;;;5.10;59.00;;;;;;6250011;28;20239;-81
2023/03/15 11:19:27;;;;;;;4.03;3.83;;;5.00;58.70;;;;;;6288350;28;20308;-80
2023/03/15 11:22:32;;;;;;;4.50;4.20;;;5.00;58.40;;;;;;6291776;28;20242;-82
2023/03/15 11:25:35;;;;;;;4.37;4.03;;;5.00;58.40;;;;;;6274355;28;20626;-80
2023/03/15 11:28:51;;;;;;;8.03;3.73;;;5.10;57.70;;;;;;6274355;28;20735;-80
2023/03/15 11:31:56;;;;;;;4.17;3.80;;;5.20;57.90;;;;;;6270571;28;20234;-79
2023/03/15 11:35:04;;;;;;;3.90;3.60;;;5.50;57.50;;;;;;6290429;28;20367;-79
2023/03/15 11:38:14;;;;;;;4.83;4.27;;;5.60;57.20;;;;;;6270082;28;20320;-82
2023/03/15 11:41:27;;;;;;;4.33;3.97;;;5.80;57.10;;;;;;6284013;28;20625;-79
2023/03/15 11:44:37;;;;;;;4.33;3.30;;;6.20;55.50;;;;;;6262273;28;20249;-81
2023/03/15 11:47:46;;;;;;;3.60;3.30;;;6.40;55.80;;;;;;6277296;28;20242;-80
2023/03/15 11:50:53;;;;;;;6.90;3.27;;;6.80;55.10;;;;;;6276090;28;20252;-80
2023/03/15 11:54:06;;;;;;;3.93;3.60;;;7.00;54.40;;;;;;6289115;28;20322;-80
2023/03/15 11:57:35;;;;;;;3.70;3.37;;;6.80;54.90;;;;;;6287677;28;20316;-79
2023/03/15 12:00:53;;;;;;;5.23;3.83;;;7.00;54.80;;;;;;6279235;28;20233;-82
2023/03/15 12:04:29;;;;;;;4.00;3.67;;;7.00;54.70;;;;;;6268476;28;20240;-80
2023/03/15 12:07:37;;;;;;;4.00;3.13;;;7.40;53.50;;;;;;6278022;28;20238;-78
2023/03/15 12:10:48;;;;;;;4.20;3.23;;;7.50;52.20;;;;;;6270069;28;20802;-77
2023/03/15 12:14:02;;;;;;;3.37;3.10;;;7.30;52.50;;;;;;6287979;28;20234;-80
2023/03/15 12:17:39;;;;;;;4.07;3.47;;;6.90;53.00;;;;;;6277213;28;20238;-80
2023/03/15 12:20:50;;;;;;;3.70;3.40;;;6.90;53.20;;;;;;6268230;28;20249;-79
2023/03/15 12:24:02;;;;;;;3.83;3.53;;;6.60;53.10;;;;;;6287926;28;20705;-77
2023/03/15 12:27:13;;;;;;;4.67;3.93;;;6.60;54.60;;;;;;6282878;28;20237;-79
2023/03/15 12:30:23;;;;;;;3.53;3.30;;;7.00;54.30;;;;;;6263644;28;20238;-78
2023/03/15 12:33:28;;;;;;;3.40;3.20;;;7.20;52.00;;;;;;6270590;27;20226;-77
2023/03/15 12:36:37;;;;;;;5.53;3.40;;;7.30;52.70;;;;;;6268281;28;20597;-82
2023/03/15 12:39:46;;;;;;;3.80;3.50;;;7.40;52.60;;;;;;6265466;28;20272;-79
2023/03/15 12:43:08;;;;;;;3.27;3.00;;;7.40;52.20;;;;;;6266376;28;20222;-79
2023/03/15 12:46:42;;;;;;;5.00;3.40;;;7.50;53.00;;;;;;6272145;28;20237;-78
2023/03/15 12:49:45;;;;;;;4.40;3.67;;;7.50;52.60;;;;;;6267462;27;20622;-79
2023/03/15 12:52:52;;;;;;;3.40;3.17;;;7.20;52.60;;;;;;6290637;28;20252;-78
2023/03/15 12:55:56;;;;;;;4.70;3.40;;;7.20;51.80;;;;;;6278692;28;20279;-79
2023/03/15 12:59:25;;;;;;;3.50;3.13;;;7.10;52.20;;;;;;6270484;28;20234;-77
2023/03/15 13:02:33;;;;;;;3.77;2.90;;;6.90;51.70;;;;;;6263310;28;20249;-79
2023/03/15 13:05:56;;;;;;;4.03;3.73;;;6.80;51.10;;;;;;6284509;28;20609;-79
2023/03/15 13:09:16;;;;;;;3.40;3.10;;;6.90;50.60;;;;;;6272333;28;20593;-80
2023/03/15 13:12:27;;;;;;;5.20;3.77;;;7.00;49.40;;;;;;6269428;28;20277;-79
2023/03/15 13:15:41;;;;;;;3.40;3.10;;;6.90;50.50;;;;;;6272464;28;20238;-77
2023/03/15 13:18:52;;;;;;;4.13;3.47;;;6.90;49.70;;;;;;6266948;28;20229;-81
2023/03/15 13:22:14;;;;;;;3.73;3.43;;;7.00;50.10;;;;;;6273567;28;20376;-80
2023/03/15 13:25:25;;;;;;;3.80;3.50;;;7.00;49.00;;;;;;6268864;28;20397;-78
2023/03/15 13:28:36;;;;;;;3.43;3.10;;;7.30;48.60;;;;;;6283617;28;20866;-77
2023/03/15 13:31:39;;;;;;;3.40;3.17;;;7.60;47.60;;;;;;6270287;28;20748;-82
2023/03/15 13:34:45;;;;;;;3.30;2.97;;;7.80;47.60;;;;;;6277519;28;20237;-81
2023/03/15 13:37:48;;;;;;;2.90;2.80;;;7.80;47.00;;;;;;6279850;28;20257;-79
2023/03/15 13:40:53;;;;;;;5.17;2.97;;;7.50;46.70;;;;;;6273827;28;20241;-80
2023/03/15 13:43:58;;;;;;;3.47;3.17;;;7.40;47.20;;;;;;6269085;28;20331;-79
2023/03/15 13:47:01;;;;;;;3.50;3.20;;;7.20;47.70;;;;;;6287123;28;20237;-80
2023/03/15 13:50:06;;;;;;;3.30;3.10;;;7.20;47.50;;;;;;6273904;28;20741;-80
2023/03/15 13:53:18;;;;;;;4.60;3.27;;;7.20;47.70;;;;;;6271868;28;20226;-82
2023/03/15 13:56:32;;;;;;;4.50;3.70;;;7.10;51.10;;;;;;6269013;28;20233;-80
2023/03/15 13:59:53;;;;;;;5.57;3.67;;;6.70;54.80;;;;;;6274722;28;20325;-81
2023/03/15 14:03:00;;;;;;;3.97;3.63;;;6.20;58.00;;;;;;6275247;28;20226;-79
2023/03/15 14:06:04;;;;;;;3.77;3.47;;;6.00;59.70;;;;;;6276020;28;20949;-80
2023/03/15 14:09:10;;;;;;;4.77;3.67;;;5.70;60.30;;;;;;6289927;28;20241;-80
2023/03/15 14:12:21;;;;;;;4.20;3.90;;;5.70;60.60;;;;;;6278277;28;20237;-80
2023/03/15 14:15:27;;;;;;;4.87;3.30;;;5.90;60.50;;;;;;6291354;28;20251;-81
2023/03/15 14:18:34;;;;;;;6.07;3.83;;;6.00;60.30;;;;;;6292176;27;20237;-80
2023/03/15 14:21:37;;;;;;;7.00;4.30;;;6.20;60.60;;;;;;6289625;28;20241;-79
2023/03/15 14:24:43;;;;;;;3.60;3.30;;;6.30;59.70;;;;;;6288618;28;20299;-79
2023/03/15 14:27:47;;;;;;;7.57;3.43;;;6.50;56.50;;;;;;6293810;28;20267;-82
2023/03/15 14:30:56;;;;;;;4.57;3.33;;;6.50;56.90;;;;;;6295590;28;20244;-81
2023/03/15 14:34:08;;;;;;;3.97;3.60;;;6.50;55.70;;;;;;6290499;28;20323;-81
2023/03/15 14:37:30;;;;;;;3.20;2.90;;;6.50;55.40;;;;;;6288946;28;20318;-81
2023/03/15 14:40:38;;;;;;;4.00;3.40;;;6.70;53.90;;;;;;6289819;28;20237;-79
2023/03/15 14:43:43;;;;;;;3.33;3.07;;;6.80;52.90;;;;;;6274032;28;20318;-80
2023/03/15 14:46:46;;;;;;;5.07;4.07;;;6.90;52.60;;;;;;6249573;28;20715;-81
2023/03/15 14:49:49;;;;;;;4.00;3.70;;;7.00;51.50;;;;;;6255164;28;20230;-81
2023/03/15 14:52:52;;;;;;;3.90;3.00;;;6.90;52.00;;;;;;6262082;28;20244;-82
2023/03/15 14:55:56;;;;;;;4.03;3.00;;;6.90;50.00;;;;;;6267449;28;20238;-80
2023/03/15 14:59:00;;;;;;;2.73;2.63;;;7.00;49.30;;;;;;6264609;28;20371;-80
2023/03/15 15:02:06;;;;;;;3.83;3.50;;;7.00;48.40;;;;;;6265337;28;20768;-80
2023/03/15 15:05:19;;;;;;;3.27;3.00;;;7.00;48.80;;;;;;6261930;28;20232;-77
2023/03/15 15:08:23;;;;;;;3.00;2.80;;;6.90;48.40;;;;;;6257478;28;20280;-79
2023/03/15 15:11:26;;;;;;;2.93;2.80;;;6.60;49.30;;;;;;6263995;28;20382;-79
2023/03/15 15:14:31;;;;;;;3.03;2.90;;;6.40;49.20;;;;;;6254218;28;20238;-78
2023/03/15 15:17:34;;;;;;;3.10;3.00;;;6.20;49.30;;;;;;6276548;28;20249;-78
2023/03/15 15:20:37;;;;;;;4.50;3.30;;;6.10;49.40;;;;;;6256957;28;20238;-78
2023/03/15 15:23:43;;;;;;;6.63;3.40;;;6.10;48.90;;;;;;6264614;28;20283;-81
2023/03/15 15:27:00;;;;;;;3.33;3.03;;;6.00;49.00;;;;;;6260903;28;20261;-82
2023/03/15 15:30:06;;;;;;;4.47;3.17;;;6.10;49.20;;;;;;6264743;28;20236;-79
2023/03/15 15:33:10;;;;;;;3.57;3.30;;;6.10;49.40;;;;;;6259620;28;20250;-78
2023/03/15 15:36:18;;;;;;;4.97;3.40;;;6.10;49.80;;;;;;6266345;28;20233;-81
2023/03/15 15:39:24;;;;;;;3.37;3.07;;;6.00;49.40;;;;;;6270333;28;20234;-80
2023/03/15 15:42:28;;;;;;;3.80;3.50;;;5.90;49.70;;;;;;6258883;28;20241;-81
2023/03/15 15:45:33;;;;;;;3.00;2.90;;;5.80;50.00;;;;;;6272224;28;20241;-78
2023/03/15 15:48:36;;;;;;;3.70;3.33;;;5.80;50.30;;;;;;6283208;28;20437;-80
2023/03/15 15:51:44;;;;;;;4.57;3.40;;;5.70;50.30;;;;;;6292356;28;20237;-79
2023/03/15 15:54:49;;;;;;;3.50;3.40;;;5.60;50.70;;;;;;6277266;28;20725;-79
2023/03/15 15:57:53;;;;;;;3.87;3.63;;;5.60;50.80;;;;;;6256264;28;20737;-79
2023/03/15 16:00:58;;;;;;;3.97;3.43;;;5.60;50.60;;;;;;6289750;28;20629;-80
2023/03/15 16:04:02;;;;;;;3.73;3.53;;;5.60;51.30;;;;;;6298167;28;20233;-78
2023/03/15 16:07:06;;;;;;;3.33;3.20;;;5.60;51.50;;;;;;6285739;27;20404;-79
2023/03/15 16:10:18;;;;;;;3.70;3.50;;;5.60;51.40;;;;;;6286296;28;20240;-80
2023/03/15 16:13:21;;;;;;;3.67;3.47;;;5.60;51.50;;;;;;6285783;28;20238;-81
2023/03/15 16:16:27;;;;;;;3.77;3.47;;;5.60;51.00;;;;;;6266104;28;20392;-77
2023/03/15 16:19:30;;;;;;;4.63;3.40;;;5.50;55.70;;;;;;6271685;28;20662;-80